sensor_id;sensor_type;location;lat;lon;timestamp;temperature;humidity
13346;DHT22;6742;48.036;15.780;2022-10-26T00:00:49;11.30;99.90
13346;DHT22;6742;48.036;15.780;2022-10-26T00:03:16;11.30;99.90
13346;DHT22;6742;48.036;15.780;2022-10-26T00:05:46;11.30;99.90
13346;DHT22;6742;48.036;15.780;2022-10-26T00:08:13;11.40;99.90
13346;DHT22;6742;48.036;15.780;2022-10-26T00:10:40;11.20;99.90
13346;DHT22;6742;48.036;15.780;2022-10-26T00:13:10;11.10;99.90
13346;DHT22;6742;48.036;15.780;2022-10-26T00:15:39;11.10;99.90
13346;DHT22;6742;48.036;15.780;2022-10-26T00:18:08;11.00;99.90
13346;DHT22;6742;48.036;15.780;2022-10-26T00:20:34;11.00;99.90
13346;DHT22;6742;48.036;15.780;2022-10-26T00:23:01;11.00;99.90
13346;DHT22;6742;48.036;15.780;2022-10-26T00:25:28;10.90;99.90
13346;DHT22;6742;48.036;15.780;2022-10-26T00:27:55;10.90;99.90
13346;DHT22;6742;48.036;15.780;2022-10-26T00:30:24;10.90;99.90
13346;DHT22;6742;48.036;15.780;2022-10-26T00:32:51;10.90;99.90
13346;DHT22;6742;48.036;15.780;2022-10-26T00:35:17;10.90;99.90
13346;DHT22;6742;48.036;15.780;2022-10-26T00:37:44;10.90;99.90
13346;DHT22;6742;48.036;15.780;2022-10-26T00:40:11;11.00;99.90
13346;DHT22;6742;48.036;15.780;2022-10-26T00:42:38;11.00;99.90
13346;DHT22;6742;48.036;15.780;2022-10-26T00:45:18;11.00;99.90
13346;DHT22;6742;48.036;15.780;2022-10-26T00:47:51;11.00;99.90
13346;DHT22;6742;48.036;15.780;2022-10-26T00:50:21;10.90;99.90
13346;DHT22;6742;48.036;15.780;2022-10-26T00:52:52;10.90;99.90
13346;DHT22;6742;48.036;15.780;2022-10-26T00:55:22;10.80;99.90
13346;DHT22;6742;48.036;15.780;2022-10-26T00:57:51;10.80;99.90
13346;DHT22;6742;48.036;15.780;2022-10-26T01:00:22;10.80;99.90
13346;DHT22;6742;48.036;15.780;2022-10-26T01:02:50;10.60;99.90
13346;DHT22;6742;48.036;15.780;2022-10-26T01:05:18;10.40;99.90
13346;DHT22;6742;48.036;15.780;2022-10-26T01:07:46;10.30;99.90
13346;DHT22;6742;48.036;15.780;2022-10-26T01:10:14;10.20;99.90
13346;DHT22;6742;48.036;15.780;2022-10-26T01:12:41;10.20;99.90
13346;DHT22;6742;48.036;15.780;2022-10-26T01:15:09;10.20;99.90
13346;DHT22;6742;48.036;15.780;2022-10-26T01:17:51;10.10;99.90
13346;DHT22;6742;48.036;15.780;2022-10-26T01:23:19;10.00;99.90
13346;DHT22;6742;48.036;15.780;2022-10-26T01:26:24;10.00;99.90
13346;DHT22;6742;48.036;15.780;2022-10-26T01:32:12;9.90;99.90
13346;DHT22;6742;48.036;15.780;2022-10-26T01:34:44;9.90;99.90
13346;DHT22;6742;48.036;15.780;2022-10-26T01:37:19;9.90;99.90
13346;DHT22;6742;48.036;15.780;2022-10-26T01:39:52;9.90;99.90
13346;DHT22;6742;48.036;15.780;2022-10-26T01:42:25;10.00;99.90
13346;DHT22;6742;48.036;15.780;2022-10-26T01:44:58;9.90;99.90
13346;DHT22;6742;48.036;15.780;2022-10-26T01:47:32;9.90;99.90
13346;DHT22;6742;48.036;15.780;2022-10-26T01:50:01;9.90;99.90
13346;DHT22;6742;48.036;15.780;2022-10-26T01:52:28;9.80;99.90
13346;DHT22;6742;48.036;15.780;2022-10-26T01:55:00;9.80;99.90
13346;DHT22;6742;48.036;15.780;2022-10-26T01:57:30;9.80;99.90
13346;DHT22;6742;48.036;15.780;2022-10-26T02:00:04;9.80;99.90
13346;DHT22;6742;48.036;15.780;2022-10-26T02:02:57;9.80;99.90
13346;DHT22;6742;48.036;15.780;2022-10-26T02:05:44;9.80;99.90
13346;DHT22;6742;48.036;15.780;2022-10-26T02:08:26;9.70;99.90
13346;DHT22;6742;48.036;15.780;2022-10-26T02:11:07;9.70;99.90
13346;DHT22;6742;48.036;15.780;2022-10-26T02:13:41;9.70;99.90
13346;DHT22;6742;48.036;15.780;2022-10-26T02:16:16;9.70;99.90
13346;DHT22;6742;48.036;15.780;2022-10-26T02:18:51;9.70;99.90
13346;DHT22;6742;48.036;15.780;2022-10-26T02:21:27;9.70;99.90
13346;DHT22;6742;48.036;15.780;2022-10-26T02:23:57;9.70;99.90
13346;DHT22;6742;48.036;15.780;2022-10-26T02:26:27;9.70;99.90
13346;DHT22;6742;48.036;15.780;2022-10-26T02:28:58;9.70;99.90
13346;DHT22;6742;48.036;15.780;2022-10-26T02:31:28;9.70;99.90
13346;DHT22;6742;48.036;15.780;2022-10-26T02:34:01;9.60;99.90
13346;DHT22;6742;48.036;15.780;2022-10-26T02:36:32;9.60;99.90
13346;DHT22;6742;48.036;15.780;2022-10-26T02:39:02;9.60;99.90
13346;DHT22;6742;48.036;15.780;2022-10-26T02:41:31;9.60;99.90
13346;DHT22;6742;48.036;15.780;2022-10-26T02:44:03;9.60;99.90
13346;DHT22;6742;48.036;15.780;2022-10-26T02:46:32;9.60;99.90
13346;DHT22;6742;48.036;15.780;2022-10-26T02:49:01;9.60;99.90
13346;DHT22;6742;48.036;15.780;2022-10-26T02:51:33;9.60;99.90
13346;DHT22;6742;48.036;15.780;2022-10-26T02:54:04;9.60;99.90
13346;DHT22;6742;48.036;15.780;2022-10-26T02:56:39;9.50;99.90
13346;DHT22;6742;48.036;15.780;2022-10-26T02:59:09;9.50;99.90
13346;DHT22;6742;48.036;15.780;2022-10-26T03:01:37;9.50;99.90
13346;DHT22;6742;48.036;15.780;2022-10-26T03:04:05;9.40;99.90
13346;DHT22;6742;48.036;15.780;2022-10-26T03:06:32;9.40;99.90
13346;DHT22;6742;48.036;15.780;2022-10-26T03:08:59;9.40;99.90
13346;DHT22;6742;48.036;15.780;2022-10-26T03:11:26;9.40;99.90
13346;DHT22;6742;48.036;15.780;2022-10-26T03:13:53;9.40;99.90
13346;DHT22;6742;48.036;15.780;2022-10-26T03:16:20;9.40;99.90
13346;DHT22;6742;48.036;15.780;2022-10-26T03:18:47;9.40;99.90
13346;DHT22;6742;48.036;15.780;2022-10-26T03:21:15;9.30;99.90
13346;DHT22;6742;48.036;15.780;2022-10-26T03:23:42;9.30;99.90
13346;DHT22;6742;48.036;15.780;2022-10-26T03:26:10;9.30;99.90
13346;DHT22;6742;48.036;15.780;2022-10-26T03:28:37;9.30;99.90
13346;DHT22;6742;48.036;15.780;2022-10-26T03:31:07;9.30;99.90
13346;DHT22;6742;48.036;15.780;2022-10-26T03:33:34;9.30;99.90
13346;DHT22;6742;48.036;15.780;2022-10-26T03:36:01;9.30;99.90
13346;DHT22;6742;48.036;15.780;2022-10-26T03:38:29;9.30;99.90
13346;DHT22;6742;48.036;15.780;2022-10-26T03:41:02;9.30;99.90
13346;DHT22;6742;48.036;15.780;2022-10-26T03:43:29;9.30;99.90
13346;DHT22;6742;48.036;15.780;2022-10-26T03:45:56;9.30;99.90
13346;DHT22;6742;48.036;15.780;2022-10-26T03:48:23;9.30;99.90
13346;DHT22;6742;48.036;15.780;2022-10-26T03:50:50;9.20;99.90
13346;DHT22;6742;48.036;15.780;2022-10-26T03:53:16;9.20;99.90
13346;DHT22;6742;48.036;15.780;2022-10-26T03:55:45;9.20;99.90
13346;DHT22;6742;48.036;15.780;2022-10-26T03:58:12;9.20;99.90
13346;DHT22;6742;48.036;15.780;2022-10-26T04:00:38;9.20;99.90
13346;DHT22;6742;48.036;15.780;2022-10-26T04:03:05;9.20;99.90
13346;DHT22;6742;48.036;15.780;2022-10-26T04:05:32;9.20;99.90
13346;DHT22;6742;48.036;15.780;2022-10-26T04:08:00;9.20;99.90
13346;DHT22;6742;48.036;15.780;2022-10-26T04:10:28;9.20;99.90
13346;DHT22;6742;48.036;15.780;2022-10-26T04:12:57;9.20;99.90
13346;DHT22;6742;48.036;15.780;2022-10-26T04:15:26;9.20;99.90
13346;DHT22;6742;48.036;15.780;2022-10-26T04:17:56;9.20;99.90
13346;DHT22;6742;48.036;15.780;2022-10-26T04:20:24;9.20;99.90
13346;DHT22;6742;48.036;15.780;2022-10-26T04:22:57;9.20;99.90
13346;DHT22;6742;48.036;15.780;2022-10-26T04:25:24;9.20;99.90
13346;DHT22;6742;48.036;15.780;2022-10-26T04:27:51;9.10;99.90
13346;DHT22;6742;48.036;15.780;2022-10-26T04:30:20;9.10;99.90
13346;DHT22;6742;48.036;15.780;2022-10-26T04:32:48;9.10;99.90
13346;DHT22;6742;48.036;15.780;2022-10-26T04:35:15;9.10;99.90
13346;DHT22;6742;48.036;15.780;2022-10-26T04:37:42;9.10;99.90
13346;DHT22;6742;48.036;15.780;2022-10-26T04:40:10;9.10;99.90
13346;DHT22;6742;48.036;15.780;2022-10-26T04:42:41;9.10;99.90
13346;DHT22;6742;48.036;15.780;2022-10-26T04:45:08;9.10;99.90
13346;DHT22;6742;48.036;15.780;2022-10-26T04:47:37;9.10;99.90
13346;DHT22;6742;48.036;15.780;2022-10-26T04:50:06;9.10;99.90
13346;DHT22;6742;48.036;15.780;2022-10-26T04:52:33;9.10;99.90
13346;DHT22;6742;48.036;15.780;2022-10-26T04:55:00;9.10;99.90
13346;DHT22;6742;48.036;15.780;2022-10-26T04:57:30;9.00;99.90
13346;DHT22;6742;48.036;15.780;2022-10-26T04:59:57;9.00;99.90
13346;DHT22;6742;48.036;15.780;2022-10-26T05:02:24;9.00;99.90
13346;DHT22;6742;48.036;15.780;2022-10-26T05:04:53;9.00;99.90
13346;DHT22;6742;48.036;15.780;2022-10-26T05:07:20;9.00;99.90
13346;DHT22;6742;48.036;15.780;2022-10-26T05:09:47;9.00;99.90
13346;DHT22;6742;48.036;15.780;2022-10-26T05:12:14;9.00;99.90
13346;DHT22;6742;48.036;15.780;2022-10-26T05:14:40;9.10;99.90
13346;DHT22;6742;48.036;15.780;2022-10-26T05:17:07;9.10;99.90
13346;DHT22;6742;48.036;15.780;2022-10-26T05:19:34;9.10;99.90
13346;DHT22;6742;48.036;15.780;2022-10-26T05:22:03;9.10;99.90
13346;DHT22;6742;48.036;15.780;2022-10-26T05:24:30;9.10;99.90
13346;DHT22;6742;48.036;15.780;2022-10-26T05:26:56;9.10;99.90
13346;DHT22;6742;48.036;15.780;2022-10-26T05:29:23;9.10;99.90
13346;DHT22;6742;48.036;15.780;2022-10-26T05:31:50;9.10;99.90
13346;DHT22;6742;48.036;15.780;2022-10-26T05:34:17;9.00;99.90
13346;DHT22;6742;48.036;15.780;2022-10-26T05:36:44;9.00;99.90
13346;DHT22;6742;48.036;15.780;2022-10-26T05:39:15;9.00;99.90
13346;DHT22;6742;48.036;15.780;2022-10-26T05:41:42;9.10;99.90
13346;DHT22;6742;48.036;15.780;2022-10-26T05:44:08;9.10;99.90
13346;DHT22;6742;48.036;15.780;2022-10-26T05:46:35;9.10;99.90
13346;DHT22;6742;48.036;15.780;2022-10-26T05:49:02;9.10;99.90
13346;DHT22;6742;48.036;15.780;2022-10-26T05:51:31;9.10;99.90
13346;DHT22;6742;48.036;15.780;2022-10-26T05:53:58;9.10;99.90
13346;DHT22;6742;48.036;15.780;2022-10-26T05:56:33;9.10;99.90
13346;DHT22;6742;48.036;15.780;2022-10-26T05:59:01;9.10;99.90
13346;DHT22;6742;48.036;15.780;2022-10-26T06:01:37;9.10;99.90
13346;DHT22;6742;48.036;15.780;2022-10-26T06:04:18;9.20;99.90
13346;DHT22;6742;48.036;15.780;2022-10-26T06:06:51;9.20;99.90
13346;DHT22;6742;48.036;15.780;2022-10-26T06:09:19;9.20;99.90
13346;DHT22;6742;48.036;15.780;2022-10-26T06:11:48;9.20;99.90
13346;DHT22;6742;48.036;15.780;2022-10-26T06:14:15;9.30;99.90
13346;DHT22;6742;48.036;15.780;2022-10-26T06:16:53;9.30;99.90
13346;DHT22;6742;48.036;15.780;2022-10-26T06:19:35;9.30;99.90
13346;DHT22;6742;48.036;15.780;2022-10-26T06:22:16;9.30;99.90
13346;DHT22;6742;48.036;15.780;2022-10-26T06:24:53;9.30;99.90
13346;DHT22;6742;48.036;15.780;2022-10-26T06:27:33;9.30;99.90
13346;DHT22;6742;48.036;15.780;2022-10-26T06:30:05;9.30;99.90
13346;DHT22;6742;48.036;15.780;2022-10-26T06:32:34;9.30;99.90
13346;DHT22;6742;48.036;15.780;2022-10-26T06:35:13;9.30;99.90
13346;DHT22;6742;48.036;15.780;2022-10-26T06:37:43;9.30;99.90
13346;DHT22;6742;48.036;15.780;2022-10-26T06:40:12;9.40;99.90
13346;DHT22;6742;48.036;15.780;2022-10-26T06:42:41;9.40;99.90
13346;DHT22;6742;48.036;15.780;2022-10-26T06:45:11;9.50;99.90
13346;DHT22;6742;48.036;15.780;2022-10-26T06:47:46;9.50;99.90
13346;DHT22;6742;48.036;15.780;2022-10-26T06:50:27;9.50;99.90
13346;DHT22;6742;48.036;15.780;2022-10-26T06:53:04;9.50;99.90
13346;DHT22;6742;48.036;15.780;2022-10-26T06:55:39;9.50;99.90
13346;DHT22;6742;48.036;15.780;2022-10-26T06:58:12;9.60;99.90
13346;DHT22;6742;48.036;15.780;2022-10-26T07:00:43;9.60;99.90
13346;DHT22;6742;48.036;15.780;2022-10-26T07:03:11;9.60;99.90
13346;DHT22;6742;48.036;15.780;2022-10-26T07:05:38;9.60;99.90
13346;DHT22;6742;48.036;15.780;2022-10-26T07:08:05;9.60;99.90
13346;DHT22;6742;48.036;15.780;2022-10-26T07:10:32;9.60;99.90
13346;DHT22;6742;48.036;15.780;2022-10-26T07:13:00;9.60;99.90
13346;DHT22;6742;48.036;15.780;2022-10-26T07:15:28;9.60;99.90
13346;DHT22;6742;48.036;15.780;2022-10-26T07:17:55;9.70;99.90
13346;DHT22;6742;48.036;15.780;2022-10-26T07:20:22;9.70;99.90
13346;DHT22;6742;48.036;15.780;2022-10-26T07:22:52;9.80;99.90
13346;DHT22;6742;48.036;15.780;2022-10-26T07:25:19;9.80;99.90
13346;DHT22;6742;48.036;15.780;2022-10-26T07:27:46;9.90;99.90
13346;DHT22;6742;48.036;15.780;2022-10-26T07:30:13;9.90;99.90
13346;DHT22;6742;48.036;15.780;2022-10-26T07:32:42;9.90;99.90
13346;DHT22;6742;48.036;15.780;2022-10-26T07:35:10;9.90;99.90
13346;DHT22;6742;48.036;15.780;2022-10-26T07:37:37;9.90;99.90
13346;DHT22;6742;48.036;15.780;2022-10-26T07:40:05;9.90;99.90
13346;DHT22;6742;48.036;15.780;2022-10-26T07:42:32;10.00;99.90
13346;DHT22;6742;48.036;15.780;2022-10-26T07:45:01;10.00;99.90
13346;DHT22;6742;48.036;15.780;2022-10-26T07:47:27;10.00;99.90
13346;DHT22;6742;48.036;15.780;2022-10-26T07:49:56;10.00;99.90
13346;DHT22;6742;48.036;15.780;2022-10-26T07:52:23;10.00;99.90
13346;DHT22;6742;48.036;15.780;2022-10-26T07:54:49;10.00;99.90
13346;DHT22;6742;48.036;15.780;2022-10-26T07:57:16;10.00;99.90
13346;DHT22;6742;48.036;15.780;2022-10-26T07:59:43;10.10;99.90
13346;DHT22;6742;48.036;15.780;2022-10-26T08:02:10;10.10;99.90
13346;DHT22;6742;48.036;15.780;2022-10-26T08:04:37;10.10;99.90
13346;DHT22;6742;48.036;15.780;2022-10-26T08:07:05;10.10;99.90
13346;DHT22;6742;48.036;15.780;2022-10-26T08:09:32;10.30;99.90
13346;DHT22;6742;48.036;15.780;2022-10-26T08:11:59;10.40;99.90
13346;DHT22;6742;48.036;15.780;2022-10-26T08:14:28;10.60;99.90
13346;DHT22;6742;48.036;15.780;2022-10-26T08:16:55;10.70;99.90
13346;DHT22;6742;48.036;15.780;2022-10-26T08:19:22;10.80;99.90
13346;DHT22;6742;48.036;15.780;2022-10-26T08:21:49;10.90;99.90
13346;DHT22;6742;48.036;15.780;2022-10-26T08:24:20;11.00;99.90
13346;DHT22;6742;48.036;15.780;2022-10-26T08:26:47;11.00;99.90
13346;DHT22;6742;48.036;15.780;2022-10-26T08:29:14;11.00;99.90
13346;DHT22;6742;48.036;15.780;2022-10-26T08:31:41;11.00;99.90
13346;DHT22;6742;48.036;15.780;2022-10-26T08:34:08;11.00;99.90
13346;DHT22;6742;48.036;15.780;2022-10-26T08:36:35;11.10;99.90
13346;DHT22;6742;48.036;15.780;2022-10-26T08:39:02;11.10;99.90
13346;DHT22;6742;48.036;15.780;2022-10-26T08:41:35;11.10;99.90
13346;DHT22;6742;48.036;15.780;2022-10-26T08:44:12;11.10;99.90
13346;DHT22;6742;48.036;15.780;2022-10-26T08:46:45;11.20;99.90
13346;DHT22;6742;48.036;15.780;2022-10-26T08:49:19;11.20;99.90
13346;DHT22;6742;48.036;15.780;2022-10-26T08:51:51;11.20;99.90
13346;DHT22;6742;48.036;15.780;2022-10-26T08:54:33;11.30;99.90
13346;DHT22;6742;48.036;15.780;2022-10-26T08:57:10;11.40;99.90
13346;DHT22;6742;48.036;15.780;2022-10-26T08:59:43;11.40;99.90
13346;DHT22;6742;48.036;15.780;2022-10-26T09:02:13;11.30;99.90
13346;DHT22;6742;48.036;15.780;2022-10-26T09:04:41;11.30;99.90
13346;DHT22;6742;48.036;15.780;2022-10-26T09:07:15;11.40;99.90
13346;DHT22;6742;48.036;15.780;2022-10-26T09:09:50;11.30;99.90
13346;DHT22;6742;48.036;15.780;2022-10-26T09:12:27;11.40;99.90
13346;DHT22;6742;48.036;15.780;2022-10-26T09:15:04;11.30;99.90
13346;DHT22;6742;48.036;15.780;2022-10-26T09:17:44;11.40;99.90
13346;DHT22;6742;48.036;15.780;2022-10-26T09:20:37;11.20;99.90
13346;DHT22;6742;48.036;15.780;2022-10-26T09:23:17;11.50;99.90
13346;DHT22;6742;48.036;15.780;2022-10-26T09:25:56;11.80;99.90
13346;DHT22;6742;48.036;15.780;2022-10-26T09:28:27;11.70;99.90
13346;DHT22;6742;48.036;15.780;2022-10-26T09:30:57;11.70;99.90
13346;DHT22;6742;48.036;15.780;2022-10-26T09:33:25;11.70;99.90
13346;DHT22;6742;48.036;15.780;2022-10-26T09:35:56;11.90;99.90
13346;DHT22;6742;48.036;15.780;2022-10-26T09:38:28;12.10;99.90
13346;DHT22;6742;48.036;15.780;2022-10-26T09:40:59;12.40;99.90
13346;DHT22;6742;48.036;15.780;2022-10-26T09:43:34;12.70;99.90
13346;DHT22;6742;48.036;15.780;2022-10-26T09:46:04;12.90;99.90
13346;DHT22;6742;48.036;15.780;2022-10-26T09:48:35;13.20;99.90
13346;DHT22;6742;48.036;15.780;2022-10-26T09:51:05;13.30;99.90
13346;DHT22;6742;48.036;15.780;2022-10-26T09:53:32;13.30;99.90
13346;DHT22;6742;48.036;15.780;2022-10-26T09:56:02;13.40;99.90
13346;DHT22;6742;48.036;15.780;2022-10-26T09:58:35;13.40;99.90
13346;DHT22;6742;48.036;15.780;2022-10-26T10:01:06;13.50;99.90
13346;DHT22;6742;48.036;15.780;2022-10-26T10:03:33;13.40;99.90
13346;DHT22;6742;48.036;15.780;2022-10-26T10:06:18;13.40;99.90
13346;DHT22;6742;48.036;15.780;2022-10-26T10:09:04;13.50;99.90
13346;DHT22;6742;48.036;15.780;2022-10-26T10:11:37;13.50;99.90
13346;DHT22;6742;48.036;15.780;2022-10-26T10:14:08;13.50;99.90
13346;DHT22;6742;48.036;15.780;2022-10-26T10:16:39;13.50;99.90
13346;DHT22;6742;48.036;15.780;2022-10-26T10:19:21;13.50;99.90
13346;DHT22;6742;48.036;15.780;2022-10-26T10:21:59;13.40;99.90
13346;DHT22;6742;48.036;15.780;2022-10-26T10:24:30;13.40;99.90
13346;DHT22;6742;48.036;15.780;2022-10-26T10:27:00;13.40;99.90
13346;DHT22;6742;48.036;15.780;2022-10-26T10:29:30;13.30;99.90
13346;DHT22;6742;48.036;15.780;2022-10-26T10:32:04;13.30;99.90
13346;DHT22;6742;48.036;15.780;2022-10-26T10:34:32;13.40;99.90
13346;DHT22;6742;48.036;15.780;2022-10-26T10:37:01;13.40;99.90
13346;DHT22;6742;48.036;15.780;2022-10-26T10:39:46;13.40;99.90
13346;DHT22;6742;48.036;15.780;2022-10-26T10:42:16;13.40;99.90
13346;DHT22;6742;48.036;15.780;2022-10-26T10:44:46;13.50;99.90
13346;DHT22;6742;48.036;15.780;2022-10-26T10:47:25;13.50;99.90
13346;DHT22;6742;48.036;15.780;2022-10-26T10:49:56;13.50;99.90
13346;DHT22;6742;48.036;15.780;2022-10-26T10:52:27;13.60;99.90
13346;DHT22;6742;48.036;15.780;2022-10-26T10:55:07;13.80;99.90
13346;DHT22;6742;48.036;15.780;2022-10-26T10:57:44;13.90;99.90
13346;DHT22;6742;48.036;15.780;2022-10-26T11:00:16;13.90;99.90
13346;DHT22;6742;48.036;15.780;2022-10-26T11:02:58;14.00;99.90
13346;DHT22;6742;48.036;15.780;2022-10-26T11:05:38;14.00;99.90
13346;DHT22;6742;48.036;15.780;2022-10-26T11:08:16;14.10;99.90
13346;DHT22;6742;48.036;15.780;2022-10-26T11:10:49;14.30;99.90
13346;DHT22;6742;48.036;15.780;2022-10-26T11:13:23;14.40;99.90
13346;DHT22;6742;48.036;15.780;2022-10-26T11:15:57;14.50;99.90
13346;DHT22;6742;48.036;15.780;2022-10-26T11:18:31;14.80;99.90
13346;DHT22;6742;48.036;15.780;2022-10-26T11:21:02;14.90;99.90
13346;DHT22;6742;48.036;15.780;2022-10-26T11:23:36;15.10;99.90
13346;DHT22;6742;48.036;15.780;2022-10-26T11:26:10;15.20;99.90
13346;DHT22;6742;48.036;15.780;2022-10-26T11:28:43;15.30;99.90
13346;DHT22;6742;48.036;15.780;2022-10-26T11:31:20;15.30;99.90
13346;DHT22;6742;48.036;15.780;2022-10-26T11:33:59;15.30;99.90
13346;DHT22;6742;48.036;15.780;2022-10-26T11:36:28;15.40;99.90
13346;DHT22;6742;48.036;15.780;2022-10-26T11:39:04;15.40;99.90
13346;DHT22;6742;48.036;15.780;2022-10-26T11:41:39;15.40;99.90
13346;DHT22;6742;48.036;15.780;2022-10-26T11:44:12;15.40;99.90
13346;DHT22;6742;48.036;15.780;2022-10-26T11:46:44;15.50;99.90
13346;DHT22;6742;48.036;15.780;2022-10-26T11:49:17;15.50;99.90
13346;DHT22;6742;48.036;15.780;2022-10-26T11:52:04;15.60;99.90
13346;DHT22;6742;48.036;15.780;2022-10-26T11:54:36;15.60;99.90
13346;DHT22;6742;48.036;15.780;2022-10-26T11:57:05;15.70;99.90
13346;DHT22;6742;48.036;15.780;2022-10-26T11:59:38;15.70;99.90
13346;DHT22;6742;48.036;15.780;2022-10-26T12:02:13;15.70;99.90
13346;DHT22;6742;48.036;15.780;2022-10-26T12:04:42;15.70;99.90
13346;DHT22;6742;48.036;15.780;2022-10-26T12:07:15;15.70;99.90
13346;DHT22;6742;48.036;15.780;2022-10-26T12:09:45;15.70;99.90
13346;DHT22;6742;48.036;15.780;2022-10-26T12:12:20;15.70;99.90
13346;DHT22;6742;48.036;15.780;2022-10-26T12:14:55;15.80;99.90
13346;DHT22;6742;48.036;15.780;2022-10-26T12:17:30;15.70;99.90
13346;DHT22;6742;48.036;15.780;2022-10-26T12:20:06;15.70;99.90
13346;DHT22;6742;48.036;15.780;2022-10-26T12:22:38;15.70;99.90
13346;DHT22;6742;48.036;15.780;2022-10-26T12:25:20;15.70;99.90
13346;DHT22;6742;48.036;15.780;2022-10-26T12:27:54;15.70;99.90
13346;DHT22;6742;48.036;15.780;2022-10-26T12:30:30;15.70;99.90
13346;DHT22;6742;48.036;15.780;2022-10-26T12:32:59;15.70;99.90
13346;DHT22;6742;48.036;15.780;2022-10-26T12:41:25;15.80;99.90
13346;DHT22;6742;48.036;15.780;2022-10-26T12:43:57;15.80;99.90
13346;DHT22;6742;48.036;15.780;2022-10-26T12:46:37;15.80;99.90
13346;DHT22;6742;48.036;15.780;2022-10-26T12:58:37;15.60;99.90
13346;DHT22;6742;48.036;15.780;2022-10-26T13:04:34;15.50;99.90
13346;DHT22;6742;48.036;15.780;2022-10-26T13:07:18;15.50;99.90
13346;DHT22;6742;48.036;15.780;2022-10-26T13:09:55;15.40;99.90
13346;DHT22;6742;48.036;15.780;2022-10-26T13:12:23;15.30;99.90
13346;DHT22;6742;48.036;15.780;2022-10-26T13:14:59;15.20;99.90
13346;DHT22;6742;48.036;15.780;2022-10-26T13:17:28;15.20;99.90
13346;DHT22;6742;48.036;15.780;2022-10-26T13:19:59;15.10;99.90
13346;DHT22;6742;48.036;15.780;2022-10-26T13:22:27;15.00;99.90
13346;DHT22;6742;48.036;15.780;2022-10-26T13:24:56;15.00;99.90
13346;DHT22;6742;48.036;15.780;2022-10-26T13:27:43;15.00;99.90
13346;DHT22;6742;48.036;15.780;2022-10-26T13:30:20;15.00;99.90
13346;DHT22;6742;48.036;15.780;2022-10-26T13:32:51;15.00;99.90
13346;DHT22;6742;48.036;15.780;2022-10-26T13:35:20;15.10;99.90
13346;DHT22;6742;48.036;15.780;2022-10-26T13:37:50;15.00;99.90
13346;DHT22;6742;48.036;15.780;2022-10-26T13:40:20;14.90;99.90
13346;DHT22;6742;48.036;15.780;2022-10-26T13:42:50;15.00;99.90
13346;DHT22;6742;48.036;15.780;2022-10-26T13:45:21;14.90;99.90
13346;DHT22;6742;48.036;15.780;2022-10-26T13:47:55;14.90;99.90
13346;DHT22;6742;48.036;15.780;2022-10-26T13:50:27;14.90;99.90
13346;DHT22;6742;48.036;15.780;2022-10-26T13:52:59;14.80;99.90
13346;DHT22;6742;48.036;15.780;2022-10-26T13:55:29;14.80;99.90
13346;DHT22;6742;48.036;15.780;2022-10-26T13:58:07;14.80;99.90
13346;DHT22;6742;48.036;15.780;2022-10-26T14:00:35;14.90;99.90
13346;DHT22;6742;48.036;15.780;2022-10-26T14:03:12;14.90;99.90
13346;DHT22;6742;48.036;15.780;2022-10-26T14:05:43;14.90;99.90
13346;DHT22;6742;48.036;15.780;2022-10-26T14:08:16;14.90;99.90
13346;DHT22;6742;48.036;15.780;2022-10-26T14:10:47;15.00;99.90
13346;DHT22;6742;48.036;15.780;2022-10-26T14:13:21;15.10;99.90
13346;DHT22;6742;48.036;15.780;2022-10-26T14:15:49;15.10;99.90
13346;DHT22;6742;48.036;15.780;2022-10-26T14:18:19;15.00;99.90
13346;DHT22;6742;48.036;15.780;2022-10-26T14:20:54;15.00;99.90
13346;DHT22;6742;48.036;15.780;2022-10-26T14:23:26;15.10;99.90
13346;DHT22;6742;48.036;15.780;2022-10-26T14:25:53;15.00;99.90
13346;DHT22;6742;48.036;15.780;2022-10-26T14:28:22;15.00;99.90
13346;DHT22;6742;48.036;15.780;2022-10-26T14:30:49;15.00;99.90
13346;DHT22;6742;48.036;15.780;2022-10-26T14:33:25;14.90;99.90
13346;DHT22;6742;48.036;15.780;2022-10-26T14:35:55;14.90;99.90
13346;DHT22;6742;48.036;15.780;2022-10-26T14:38:24;14.90;99.90
13346;DHT22;6742;48.036;15.780;2022-10-26T14:40:54;14.90;99.90
13346;DHT22;6742;48.036;15.780;2022-10-26T14:43:23;14.90;99.90
13346;DHT22;6742;48.036;15.780;2022-10-26T14:45:52;14.90;99.90
13346;DHT22;6742;48.036;15.780;2022-10-26T14:48:23;14.90;99.90
13346;DHT22;6742;48.036;15.780;2022-10-26T14:50:59;14.90;99.90
13346;DHT22;6742;48.036;15.780;2022-10-26T14:53:34;14.90;99.90
13346;DHT22;6742;48.036;15.780;2022-10-26T14:56:03;14.80;99.90
13346;DHT22;6742;48.036;15.780;2022-10-26T14:58:32;14.80;99.90
13346;DHT22;6742;48.036;15.780;2022-10-26T15:01:23;14.80;99.90
13346;DHT22;6742;48.036;15.780;2022-10-26T15:03:53;14.80;99.90
13346;DHT22;6742;48.036;15.780;2022-10-26T15:06:42;14.70;99.90
13346;DHT22;6742;48.036;15.780;2022-10-26T15:09:30;14.80;99.90
13346;DHT22;6742;48.036;15.780;2022-10-26T15:11:57;14.70;99.90
13346;DHT22;6742;48.036;15.780;2022-10-26T15:14:24;14.60;99.90
13346;DHT22;6742;48.036;15.780;2022-10-26T15:16:53;14.60;99.90
13346;DHT22;6742;48.036;15.780;2022-10-26T15:19:21;14.60;99.90
13346;DHT22;6742;48.036;15.780;2022-10-26T15:21:52;14.60;99.90
13346;DHT22;6742;48.036;15.780;2022-10-26T15:24:29;14.50;99.90
13346;DHT22;6742;48.036;15.780;2022-10-26T15:26:57;14.50;99.90
13346;DHT22;6742;48.036;15.780;2022-10-26T15:29:35;14.50;99.90
13346;DHT22;6742;48.036;15.780;2022-10-26T15:32:04;14.40;99.90
13346;DHT22;6742;48.036;15.780;2022-10-26T15:34:31;14.40;99.90
13346;DHT22;6742;48.036;15.780;2022-10-26T15:37:07;14.40;99.90
13346;DHT22;6742;48.036;15.780;2022-10-26T15:39:34;14.30;99.90
13346;DHT22;6742;48.036;15.780;2022-10-26T15:42:01;14.40;99.90
13346;DHT22;6742;48.036;15.780;2022-10-26T15:44:28;14.30;99.90
13346;DHT22;6742;48.036;15.780;2022-10-26T15:47:00;14.30;99.90
13346;DHT22;6742;48.036;15.780;2022-10-26T15:49:27;14.30;99.90
13346;DHT22;6742;48.036;15.780;2022-10-26T15:51:54;14.30;99.90
13346;DHT22;6742;48.036;15.780;2022-10-26T15:54:22;14.30;99.90
13346;DHT22;6742;48.036;15.780;2022-10-26T15:56:49;14.30;99.90
13346;DHT22;6742;48.036;15.780;2022-10-26T15:59:17;14.20;99.90
13346;DHT22;6742;48.036;15.780;2022-10-26T16:01:48;14.20;99.90
13346;DHT22;6742;48.036;15.780;2022-10-26T16:04:16;14.20;99.90
13346;DHT22;6742;48.036;15.780;2022-10-26T16:06:43;14.20;99.90
13346;DHT22;6742;48.036;15.780;2022-10-26T16:09:14;14.20;99.90
13346;DHT22;6742;48.036;15.780;2022-10-26T16:11:43;14.20;99.90
13346;DHT22;6742;48.036;15.780;2022-10-26T16:14:10;14.20;99.90
13346;DHT22;6742;48.036;15.780;2022-10-26T16:16:37;14.10;99.90
13346;DHT22;6742;48.036;15.780;2022-10-26T16:19:04;14.10;99.90
13346;DHT22;6742;48.036;15.780;2022-10-26T16:21:31;14.00;99.90
13346;DHT22;6742;48.036;15.780;2022-10-26T16:23:58;14.00;99.90
13346;DHT22;6742;48.036;15.780;2022-10-26T16:26:25;14.00;99.90